sensor_id;sensor_type;location;lat;lon;timestamp;temperature;humidity
20610;DHT22;10463;52.378;9.688;2022-11-18T00:01:05;23.40;26.60
20610;DHT22;10463;52.378;9.688;2022-11-18T00:03:51;23.40;26.60
20610;DHT22;10463;52.378;9.688;2022-11-18T00:06:36;23.40;26.60
20610;DHT22;10463;52.378;9.688;2022-11-18T00:09:20;23.40;26.60
20610;DHT22;10463;52.378;9.688;2022-11-18T00:12:06;23.40;26.60
20610;DHT22;10463;52.378;9.688;2022-11-18T00:15:10;23.40;26.60
20610;DHT22;10463;52.378;9.688;2022-11-18T00:17:55;23.40;26.60
20610;DHT22;10463;52.378;9.688;2022-11-18T00:20:39;23.40;26.60
20610;DHT22;10463;52.378;9.688;2022-11-18T00:23:24;23.40;26.60
20610;DHT22;10463;52.378;9.688;2022-11-18T00:26:12;23.30;26.50
20610;DHT22;10463;52.378;9.688;2022-11-18T00:28:57;23.30;26.50
20610;DHT22;10463;52.378;9.688;2022-11-18T00:31:43;23.30;26.60
20610;DHT22;10463;52.378;9.688;2022-11-18T00:34:28;23.30;26.60
20610;DHT22;10463;52.378;9.688;2022-11-18T00:37:13;23.30;26.60
20610;DHT22;10463;52.378;9.688;2022-11-18T00:39:59;23.40;26.70
20610;DHT22;10463;52.378;9.688;2022-11-18T00:42:43;23.40;26.60
20610;DHT22;10463;52.378;9.688;2022-11-18T00:45:37;23.40;26.60
20610;DHT22;10463;52.378;9.688;2022-11-18T00:48:23;23.40;26.50
20610;DHT22;10463;52.378;9.688;2022-11-18T00:51:12;23.30;26.40
20610;DHT22;10463;52.378;9.688;2022-11-18T00:53:57;23.30;26.30
20610;DHT22;10463;52.378;9.688;2022-11-18T00:56:41;23.30;26.30
20610;DHT22;10463;52.378;9.688;2022-11-18T00:59:26;23.30;26.20
20610;DHT22;10463;52.378;9.688;2022-11-18T01:02:11;23.30;26.20
20610;DHT22;10463;52.378;9.688;2022-11-18T01:04:57;23.30;26.20
20610;DHT22;10463;52.378;9.688;2022-11-18T01:07:41;23.30;26.60
20610;DHT22;10463;52.378;9.688;2022-11-18T01:10:25;23.30;26.10
20610;DHT22;10463;52.378;9.688;2022-11-18T01:13:17;23.20;26.00
20610;DHT22;10463;52.378;9.688;2022-11-18T01:16:05;23.20;26.00
20610;DHT22;10463;52.378;9.688;2022-11-18T01:18:51;23.20;26.00
20610;DHT22;10463;52.378;9.688;2022-11-18T01:21:37;23.20;26.00
20610;DHT22;10463;52.378;9.688;2022-11-18T01:24:22;23.10;25.90
20610;DHT22;10463;52.378;9.688;2022-11-18T01:27:10;23.10;25.90
20610;DHT22;10463;52.378;9.688;2022-11-18T01:29:54;23.10;25.80
20610;DHT22;10463;52.378;9.688;2022-11-18T01:32:39;23.10;25.90
20610;DHT22;10463;52.378;9.688;2022-11-18T01:35:24;23.00;25.80
20610;DHT22;10463;52.378;9.688;2022-11-18T01:38:12;23.00;25.80
20610;DHT22;10463;52.378;9.688;2022-11-18T01:40:58;23.00;25.80
20610;DHT22;10463;52.378;9.688;2022-11-18T01:43:52;23.00;25.80
20610;DHT22;10463;52.378;9.688;2022-11-18T01:46:37;23.00;25.80
20610;DHT22;10463;52.378;9.688;2022-11-18T01:49:22;23.00;25.80
20610;DHT22;10463;52.378;9.688;2022-11-18T01:52:08;22.90;25.70
20610;DHT22;10463;52.378;9.688;2022-11-18T01:54:57;22.90;25.70
20610;DHT22;10463;52.378;9.688;2022-11-18T01:57:43;22.90;25.70
20610;DHT22;10463;52.378;9.688;2022-11-18T02:00:30;22.90;25.80
20610;DHT22;10463;52.378;9.688;2022-11-18T02:03:16;22.90;25.70
20610;DHT22;10463;52.378;9.688;2022-11-18T02:06:02;22.80;25.70
20610;DHT22;10463;52.378;9.688;2022-11-18T02:08:48;22.80;25.70
20610;DHT22;10463;52.378;9.688;2022-11-18T02:11:35;22.80;25.70
20610;DHT22;10463;52.378;9.688;2022-11-18T02:14:39;22.80;25.70
20610;DHT22;10463;52.378;9.688;2022-11-18T02:17:36;22.70;25.60
20610;DHT22;10463;52.378;9.688;2022-11-18T02:20:41;22.70;25.70
20610;DHT22;10463;52.378;9.688;2022-11-18T02:24:22;22.70;26.20
20610;DHT22;10463;52.378;9.688;2022-11-18T02:27:45;22.60;25.60
20610;DHT22;10463;52.378;9.688;2022-11-18T02:30:42;22.60;25.60
20610;DHT22;10463;52.378;9.688;2022-11-18T02:33:37;22.60;25.60
20610;DHT22;10463;52.378;9.688;2022-11-18T02:36:33;22.60;26.00
20610;DHT22;10463;52.378;9.688;2022-11-18T02:39:26;22.50;25.60
20610;DHT22;10463;52.378;9.688;2022-11-18T02:42:14;22.50;25.60
20610;DHT22;10463;52.378;9.688;2022-11-18T02:45:05;22.50;25.60
20610;DHT22;10463;52.378;9.688;2022-11-18T02:47:51;22.50;25.60
20610;DHT22;10463;52.378;9.688;2022-11-18T02:50:38;22.50;25.60
20610;DHT22;10463;52.378;9.688;2022-11-18T02:53:27;22.50;25.60
20610;DHT22;10463;52.378;9.688;2022-11-18T02:56:14;22.40;25.50
20610;DHT22;10463;52.378;9.688;2022-11-18T02:59:01;22.40;25.50
20610;DHT22;10463;52.378;9.688;2022-11-18T03:01:45;22.40;25.60
20610;DHT22;10463;52.378;9.688;2022-11-18T03:04:33;22.40;25.60
20610;DHT22;10463;52.378;9.688;2022-11-18T03:07:25;22.40;25.60
20610;DHT22;10463;52.378;9.688;2022-11-18T03:10:12;22.40;25.60
20610;DHT22;10463;52.378;9.688;2022-11-18T03:13:12;22.40;25.60
20610;DHT22;10463;52.378;9.688;2022-11-18T03:16:03;22.30;25.50
20610;DHT22;10463;52.378;9.688;2022-11-18T03:18:54;22.30;25.50
20610;DHT22;10463;52.378;9.688;2022-11-18T03:21:54;22.30;25.50
20610;DHT22;10463;52.378;9.688;2022-11-18T03:24:51;22.30;25.50
20610;DHT22;10463;52.378;9.688;2022-11-18T03:27:44;22.20;26.00
20610;DHT22;10463;52.378;9.688;2022-11-18T03:30:32;22.20;25.50
20610;DHT22;10463;52.378;9.688;2022-11-18T03:33:23;22.20;26.00
20610;DHT22;10463;52.378;9.688;2022-11-18T03:36:11;22.20;25.50
20610;DHT22;10463;52.378;9.688;2022-11-18T03:39:00;22.20;25.50
20610;DHT22;10463;52.378;9.688;2022-11-18T03:41:52;22.20;25.50
20610;DHT22;10463;52.378;9.688;2022-11-18T03:44:41;22.20;25.50
20610;DHT22;10463;52.378;9.688;2022-11-18T03:47:32;22.20;25.50
20610;DHT22;10463;52.378;9.688;2022-11-18T03:50:24;22.10;25.40
20610;DHT22;10463;52.378;9.688;2022-11-18T03:53:10;22.10;25.50
20610;DHT22;10463;52.378;9.688;2022-11-18T03:56:02;22.10;25.50
20610;DHT22;10463;52.378;9.688;2022-11-18T03:58:54;22.10;25.50
20610;DHT22;10463;52.378;9.688;2022-11-18T04:01:44;22.10;25.50
20610;DHT22;10463;52.378;9.688;2022-11-18T04:04:30;22.10;25.50
20610;DHT22;10463;52.378;9.688;2022-11-18T04:07:21;22.00;25.40
20610;DHT22;10463;52.378;9.688;2022-11-18T04:10:15;22.10;25.50
20610;DHT22;10463;52.378;9.688;2022-11-18T04:13:05;22.00;25.40
20610;DHT22;10463;52.378;9.688;2022-11-18T04:15:52;22.00;25.50
20610;DHT22;10463;52.378;9.688;2022-11-18T04:18:37;22.00;25.40
20610;DHT22;10463;52.378;9.688;2022-11-18T04:21:22;22.00;25.40
20610;DHT22;10463;52.378;9.688;2022-11-18T04:24:07;21.90;25.40
20610;DHT22;10463;52.378;9.688;2022-11-18T04:26:52;21.90;25.40
20610;DHT22;10463;52.378;9.688;2022-11-18T04:29:38;21.90;25.90
20610;DHT22;10463;52.378;9.688;2022-11-18T04:32:22;21.90;25.40
20610;DHT22;10463;52.378;9.688;2022-11-18T04:35:07;21.90;25.40
20610;DHT22;10463;52.378;9.688;2022-11-18T04:37:52;21.90;25.40
20610;DHT22;10463;52.378;9.688;2022-11-18T04:40:37;21.90;25.40
20610;DHT22;10463;52.378;9.688;2022-11-18T04:43:22;21.80;25.30
20610;DHT22;10463;52.378;9.688;2022-11-18T04:46:07;21.80;25.30
20610;DHT22;10463;52.378;9.688;2022-11-18T04:48:52;21.80;25.40
20610;DHT22;10463;52.378;9.688;2022-11-18T04:51:37;21.80;25.40
20610;DHT22;10463;52.378;9.688;2022-11-18T04:54:24;21.80;25.40
20610;DHT22;10463;52.378;9.688;2022-11-18T04:57:09;21.80;25.40
20610;DHT22;10463;52.378;9.688;2022-11-18T04:59:54;21.80;25.40
20610;DHT22;10463;52.378;9.688;2022-11-18T05:02:40;21.80;25.40
20610;DHT22;10463;52.378;9.688;2022-11-18T05:05:24;21.70;25.30
20610;DHT22;10463;52.378;9.688;2022-11-18T05:08:09;21.70;25.40
20610;DHT22;10463;52.378;9.688;2022-11-18T05:10:53;21.70;25.30
20610;DHT22;10463;52.378;9.688;2022-11-18T05:13:58;21.70;25.40
20610;DHT22;10463;52.378;9.688;2022-11-18T05:16:43;21.70;25.40
20610;DHT22;10463;52.378;9.688;2022-11-18T05:19:29;21.70;25.40
20610;DHT22;10463;52.378;9.688;2022-11-18T05:22:14;21.70;25.40
20610;DHT22;10463;52.378;9.688;2022-11-18T05:24:59;21.60;25.30
20610;DHT22;10463;52.378;9.688;2022-11-18T05:27:43;21.60;25.30
20610;DHT22;10463;52.378;9.688;2022-11-18T05:30:28;21.60;25.30
20610;DHT22;10463;52.378;9.688;2022-11-18T05:33:13;21.60;25.30
20610;DHT22;10463;52.378;9.688;2022-11-18T05:36:03;21.60;25.40
20610;DHT22;10463;52.378;9.688;2022-11-18T05:38:48;21.60;25.40
20610;DHT22;10463;52.378;9.688;2022-11-18T05:41:33;21.50;25.30
20610;DHT22;10463;52.378;9.688;2022-11-18T05:44:37;21.50;25.30
20610;DHT22;10463;52.378;9.688;2022-11-18T05:47:21;21.50;25.30
20610;DHT22;10463;52.378;9.688;2022-11-18T05:50:08;21.50;25.30
20610;DHT22;10463;52.378;9.688;2022-11-18T05:52:54;21.50;25.40
20610;DHT22;10463;52.378;9.688;2022-11-18T05:55:43;21.50;25.40
20610;DHT22;10463;52.378;9.688;2022-11-18T05:58:31;21.50;25.50
20610;DHT22;10463;52.378;9.688;2022-11-18T06:01:19;21.50;25.50
20610;DHT22;10463;52.378;9.688;2022-11-18T06:04:10;21.50;25.50
20610;DHT22;10463;52.378;9.688;2022-11-18T06:07:02;21.50;25.50
20610;DHT22;10463;52.378;9.688;2022-11-18T06:09:54;21.50;25.50
20610;DHT22;10463;52.378;9.688;2022-11-18T06:12:44;21.50;25.50
20610;DHT22;10463;52.378;9.688;2022-11-18T06:15:31;21.40;26.00
20610;DHT22;10463;52.378;9.688;2022-11-18T06:18:19;21.50;25.50
20610;DHT22;10463;52.378;9.688;2022-11-18T06:21:06;21.50;25.50
20610;DHT22;10463;52.378;9.688;2022-11-18T06:23:51;21.40;25.40
20610;DHT22;10463;52.378;9.688;2022-11-18T06:26:37;21.50;25.50
20610;DHT22;10463;52.378;9.688;2022-11-18T06:29:22;21.40;25.40
20610;DHT22;10463;52.378;9.688;2022-11-18T06:32:06;21.40;25.40
20610;DHT22;10463;52.378;9.688;2022-11-18T06:34:51;21.40;25.40
20610;DHT22;10463;52.378;9.688;2022-11-18T06:37:36;21.40;25.30
20610;DHT22;10463;52.378;9.688;2022-11-18T06:40:20;21.40;25.30
20610;DHT22;10463;52.378;9.688;2022-11-18T06:43:07;21.40;25.40
20610;DHT22;10463;52.378;9.688;2022-11-18T06:46:13;21.40;25.50
20610;DHT22;10463;52.378;9.688;2022-11-18T06:49:17;21.40;25.50
20610;DHT22;10463;52.378;9.688;2022-11-18T06:52:02;21.40;25.60
20610;DHT22;10463;52.378;9.688;2022-11-18T06:54:47;21.40;25.80
20610;DHT22;10463;52.378;9.688;2022-11-18T06:57:32;21.40;25.80
20610;DHT22;10463;52.378;9.688;2022-11-18T07:00:19;21.40;25.80
20610;DHT22;10463;52.378;9.688;2022-11-18T07:03:03;21.50;25.90
20610;DHT22;10463;52.378;9.688;2022-11-18T07:05:48;21.40;25.90
20610;DHT22;10463;52.378;9.688;2022-11-18T07:08:34;21.50;26.00
20610;DHT22;10463;52.378;9.688;2022-11-18T07:11:21;21.50;25.90
20610;DHT22;10463;52.378;9.688;2022-11-18T07:14:07;21.50;25.90
20610;DHT22;10463;52.378;9.688;2022-11-18T07:16:53;21.50;25.90
20610;DHT22;10463;52.378;9.688;2022-11-18T07:19:38;21.50;26.40
20610;DHT22;10463;52.378;9.688;2022-11-18T07:22:23;21.50;25.90
20610;DHT22;10463;52.378;9.688;2022-11-18T07:25:09;21.50;25.90
20610;DHT22;10463;52.378;9.688;2022-11-18T07:27:53;21.50;25.90
20610;DHT22;10463;52.378;9.688;2022-11-18T07:30:38;21.50;25.80
20610;DHT22;10463;52.378;9.688;2022-11-18T07:33:24;21.50;25.80
20610;DHT22;10463;52.378;9.688;2022-11-18T07:36:11;21.50;25.80
20610;DHT22;10463;52.378;9.688;2022-11-18T07:38:58;21.50;25.80
20610;DHT22;10463;52.378;9.688;2022-11-18T07:41:43;21.50;25.80
20610;DHT22;10463;52.378;9.688;2022-11-18T07:44:27;21.50;25.70
20610;DHT22;10463;52.378;9.688;2022-11-18T07:47:12;21.60;25.80
20610;DHT22;10463;52.378;9.688;2022-11-18T07:49:58;21.50;25.70
20610;DHT22;10463;52.378;9.688;2022-11-18T07:52:42;21.60;25.80
20610;DHT22;10463;52.378;9.688;2022-11-18T07:55:27;21.50;25.70
20610;DHT22;10463;52.378;9.688;2022-11-18T07:58:11;21.50;25.70
20610;DHT22;10463;52.378;9.688;2022-11-18T08:00:56;21.60;25.70
20610;DHT22;10463;52.378;9.688;2022-11-18T08:03:42;21.60;25.70
20610;DHT22;10463;52.378;9.688;2022-11-18T08:06:31;21.60;25.70
20610;DHT22;10463;52.378;9.688;2022-11-18T08:09:16;21.60;25.70
20610;DHT22;10463;52.378;9.688;2022-11-18T08:12:00;21.60;25.60
20610;DHT22;10463;52.378;9.688;2022-11-18T08:14:45;21.60;25.60
20610;DHT22;10463;52.378;9.688;2022-11-18T08:17:30;21.60;25.60
20610;DHT22;10463;52.378;9.688;2022-11-18T08:20:16;21.60;25.60
20610;DHT22;10463;52.378;9.688;2022-11-18T08:23:02;21.60;25.50
20610;DHT22;10463;52.378;9.688;2022-11-18T08:25:47;21.60;25.50
20610;DHT22;10463;52.378;9.688;2022-11-18T08:28:32;21.60;25.50
20610;DHT22;10463;52.378;9.688;2022-11-18T08:31:20;21.60;25.50
20610;DHT22;10463;52.378;9.688;2022-11-18T08:34:06;21.60;25.50
20610;DHT22;10463;52.378;9.688;2022-11-18T08:36:51;21.60;25.50
20610;DHT22;10463;52.378;9.688;2022-11-18T08:39:37;21.60;25.50
20610;DHT22;10463;52.378;9.688;2022-11-18T08:42:22;21.60;25.40
20610;DHT22;10463;52.378;9.688;2022-11-18T08:45:09;21.60;25.40
20610;DHT22;10463;52.378;9.688;2022-11-18T08:47:54;21.60;25.40
20610;DHT22;10463;52.378;9.688;2022-11-18T08:50:38;21.60;25.40
20610;DHT22;10463;52.378;9.688;2022-11-18T08:53:23;21.60;25.40
20610;DHT22;10463;52.378;9.688;2022-11-18T08:56:15;21.60;25.40
20610;DHT22;10463;52.378;9.688;2022-11-18T08:59:00;21.60;25.40
20610;DHT22;10463;52.378;9.688;2022-11-18T09:01:45;21.60;25.40
20610;DHT22;10463;52.378;9.688;2022-11-18T09:04:29;21.60;25.50
20610;DHT22;10463;52.378;9.688;2022-11-18T09:07:14;21.70;25.60
20610;DHT22;10463;52.378;9.688;2022-11-18T09:09:58;21.60;25.60
20610;DHT22;10463;52.378;9.688;2022-11-18T09:12:44;21.70;25.70
20610;DHT22;10463;52.378;9.688;2022-11-18T09:15:30;21.70;25.70
20610;DHT22;10463;52.378;9.688;2022-11-18T09:18:14;21.60;25.60
20610;DHT22;10463;52.378;9.688;2022-11-18T09:21:02;21.70;25.80
20610;DHT22;10463;52.378;9.688;2022-11-18T09:23:46;21.60;25.70
20610;DHT22;10463;52.378;9.688;2022-11-18T09:26:31;21.70;25.80
20610;DHT22;10463;52.378;9.688;2022-11-18T09:29:17;21.70;25.80
20610;DHT22;10463;52.378;9.688;2022-11-18T09:32:02;21.70;25.80
20610;DHT22;10463;52.378;9.688;2022-11-18T09:34:47;21.70;25.70
20610;DHT22;10463;52.378;9.688;2022-11-18T09:37:32;21.70;25.70
20610;DHT22;10463;52.378;9.688;2022-11-18T09:40:18;21.70;25.70
20610;DHT22;10463;52.378;9.688;2022-11-18T09:43:10;21.70;25.70
20610;DHT22;10463;52.378;9.688;2022-11-18T09:46:14;21.70;25.60
20610;DHT22;10463;52.378;9.688;2022-11-18T09:49:10;21.70;25.60
20610;DHT22;10463;52.378;9.688;2022-11-18T09:52:03;21.70;26.10
20610;DHT22;10463;52.378;9.688;2022-11-18T09:54:49;21.80;25.70
20610;DHT22;10463;52.378;9.688;2022-11-18T09:57:37;21.80;25.60
20610;DHT22;10463;52.378;9.688;2022-11-18T10:00:26;21.70;25.50
20610;DHT22;10463;52.378;9.688;2022-11-18T10:03:18;21.80;25.60
20610;DHT22;10463;52.378;9.688;2022-11-18T10:06:18;21.80;25.50
20610;DHT22;10463;52.378;9.688;2022-11-18T10:09:21;21.70;25.50
20610;DHT22;10463;52.378;9.688;2022-11-18T10:12:20;21.70;25.50
20610;DHT22;10463;52.378;9.688;2022-11-18T10:15:20;21.80;25.50
20610;DHT22;10463;52.378;9.688;2022-11-18T10:18:21;21.70;25.50
20610;DHT22;10463;52.378;9.688;2022-11-18T10:21:16;21.80;25.50
20610;DHT22;10463;52.378;9.688;2022-11-18T10:24:09;21.80;25.50
20610;DHT22;10463;52.378;9.688;2022-11-18T10:26:59;21.70;26.00
20610;DHT22;10463;52.378;9.688;2022-11-18T10:29:47;21.80;25.50
20610;DHT22;10463;52.378;9.688;2022-11-18T10:32:52;21.80;25.50
20610;DHT22;10463;52.378;9.688;2022-11-18T10:35:38;21.80;25.50
20610;DHT22;10463;52.378;9.688;2022-11-18T10:38:23;21.70;25.40
20610;DHT22;10463;52.378;9.688;2022-11-18T10:41:11;21.80;25.40
20610;DHT22;10463;52.378;9.688;2022-11-18T10:43:57;21.80;25.40
20610;DHT22;10463;52.378;9.688;2022-11-18T10:46:41;21.80;25.40
20610;DHT22;10463;52.378;9.688;2022-11-18T10:49:26;21.80;25.40
20610;DHT22;10463;52.378;9.688;2022-11-18T10:52:13;21.80;25.40
20610;DHT22;10463;52.378;9.688;2022-11-18T10:55:21;21.80;25.40
20610;DHT22;10463;52.378;9.688;2022-11-18T10:58:09;21.80;25.40
20610;DHT22;10463;52.378;9.688;2022-11-18T11:01:05;21.80;25.40
20610;DHT22;10463;52.378;9.688;2022-11-18T11:03:58;21.80;25.40
20610;DHT22;10463;52.378;9.688;2022-11-18T11:06:43;21.70;25.30
20610;DHT22;10463;52.378;9.688;2022-11-18T11:09:30;21.70;25.30
20610;DHT22;10463;52.378;9.688;2022-11-18T11:12:17;21.70;25.30
20610;DHT22;10463;52.378;9.688;2022-11-18T11:15:05;21.80;25.40
20610;DHT22;10463;52.378;9.688;2022-11-18T11:17:58;21.80;25.40
20610;DHT22;10463;52.378;9.688;2022-11-18T11:21:10;21.80;25.40
20610;DHT22;10463;52.378;9.688;2022-11-18T11:23:55;21.80;25.40
20610;DHT22;10463;52.378;9.688;2022-11-18T11:26:51;21.70;25.30
20610;DHT22;10463;52.378;9.688;2022-11-18T11:29:59;21.80;25.40
20610;DHT22;10463;52.378;9.688;2022-11-18T11:33:25;21.80;25.40
20610;DHT22;10463;52.378;9.688;2022-11-18T11:36:28;21.80;25.40
20610;DHT22;10463;52.378;9.688;2022-11-18T11:39:45;21.80;25.90
20610;DHT22;10463;52.378;9.688;2022-11-18T11:42:45;21.80;25.40
20610;DHT22;10463;52.378;9.688;2022-11-18T11:45:43;21.80;25.40
20610;DHT22;10463;52.378;9.688;2022-11-18T11:48:44;21.80;25.40
20610;DHT22;10463;52.378;9.688;2022-11-18T11:51:33;21.70;25.30
20610;DHT22;10463;52.378;9.688;2022-11-18T11:54:40;21.70;25.30
20610;DHT22;10463;52.378;9.688;2022-11-18T11:57:37;21.80;25.30
20610;DHT22;10463;52.378;9.688;2022-11-18T12:00:24;21.70;25.30
20610;DHT22;10463;52.378;9.688;2022-11-18T12:03:39;21.80;25.30
20610;DHT22;10463;52.378;9.688;2022-11-18T12:06:26;21.70;25.30
20610;DHT22;10463;52.378;9.688;2022-11-18T12:09:16;21.80;25.40
20610;DHT22;10463;52.378;9.688;2022-11-18T12:12:07;21.80;25.40
20610;DHT22;10463;52.378;9.688;2022-11-18T12:15:38;21.70;25.30
20610;DHT22;10463;52.378;9.688;2022-11-18T12:18:32;21.70;25.20
20610;DHT22;10463;52.378;9.688;2022-11-18T12:21:53;21.80;25.30
20610;DHT22;10463;52.378;9.688;2022-11-18T12:24:40;21.80;25.30
20610;DHT22;10463;52.378;9.688;2022-11-18T12:27:56;21.80;25.30
20610;DHT22;10463;52.378;9.688;2022-11-18T12:30:43;21.70;25.30
20610;DHT22;10463;52.378;9.688;2022-11-18T12:33:28;21.70;25.30
20610;DHT22;10463;52.378;9.688;2022-11-18T12:36:24;21.80;25.30
20610;DHT22;10463;52.378;9.688;2022-11-18T12:39:47;21.70;25.30
20610;DHT22;10463;52.378;9.688;2022-11-18T12:42:39;21.70;25.20
20610;DHT22;10463;52.378;9.688;2022-11-18T12:45:59;21.70;25.20
20610;DHT22;10463;52.378;9.688;2022-11-18T12:48:44;21.70;25.20
20610;DHT22;10463;52.378;9.688;2022-11-18T12:51:40;21.70;25.20
20610;DHT22;10463;52.378;9.688;2022-11-18T12:54:30;21.70;25.20
20610;DHT22;10463;52.378;9.688;2022-11-18T12:57:20;21.70;25.20
20610;DHT22;10463;52.378;9.688;2022-11-18T13:00:17;21.70;25.20
20610;DHT22;10463;52.378;9.688;2022-11-18T13:03:03;21.70;25.20
20610;DHT22;10463;52.378;9.688;2022-11-18T13:05:49;21.70;25.20
20610;DHT22;10463;52.378;9.688;2022-11-18T13:08:34;21.70;25.20
20610;DHT22;10463;52.378;9.688;2022-11-18T13:11:22;21.70;25.20
20610;DHT22;10463;52.378;9.688;2022-11-18T13:14:29;21.70;25.20
20610;DHT22;10463;52.378;9.688;2022-11-18T13:17:35;21.70;25.20
20610;DHT22;10463;52.378;9.688;2022-11-18T13:20:38;21.70;25.20
20610;DHT22;10463;52.378;9.688;2022-11-18T13:23:28;21.70;25.20
20610;DHT22;10463;52.378;9.688;2022-11-18T13:26:33;21.70;25.20
20610;DHT22;10463;52.378;9.688;2022-11-18T13:29:30;21.70;25.20
20610;DHT22;10463;52.378;9.688;2022-11-18T13:32:21;21.70;25.20
20610;DHT22;10463;52.378;9.688;2022-11-18T13:35:13;21.70;25.20
20610;DHT22;10463;52.378;9.688;2022-11-18T13:38:01;21.70;25.20
20610;DHT22;10463;52.378;9.688;2022-11-18T13:40:47;21.70;25.20
20610;DHT22;10463;52.378;9.688;2022-11-18T13:43:47;21.70;25.10
20610;DHT22;10463;52.378;9.688;2022-11-18T13:46:33;21.70;25.10
20610;DHT22;10463;52.378;9.688;2022-11-18T13:49:23;21.70;25.10
20610;DHT22;10463;52.378;9.688;2022-11-18T13:52:11;21.70;25.10
20610;DHT22;10463;52.378;9.688;2022-11-18T13:55:00;21.70;25.10
20610;DHT22;10463;52.378;9.688;2022-11-18T13:57:48;21.70;25.10
20610;DHT22;10463;52.378;9.688;2022-11-18T14:00:34;21.70;25.10
20610;DHT22;10463;52.378;9.688;2022-11-18T14:03:24;21.70;25.10
20610;DHT22;10463;52.378;9.688;2022-11-18T14:06:23;21.70;25.10
20610;DHT22;10463;52.378;9.688;2022-11-18T14:09:20;21.70;25.10
20610;DHT22;10463;52.378;9.688;2022-11-18T14:12:22;21.70;25.10
20610;DHT22;10463;52.378;9.688;2022-11-18T14:15:20;21.70;25.10
20610;DHT22;10463;52.378;9.688;2022-11-18T14:18:19;21.70;25.10
20610;DHT22;10463;52.378;9.688;2022-11-18T14:21:05;21.70;25.10
20610;DHT22;10463;52.378;9.688;2022-11-18T14:23:49;21.70;25.10
20610;DHT22;10463;52.378;9.688;2022-11-18T14:26:37;21.70;25.10
20610;DHT22;10463;52.378;9.688;2022-11-18T14:29:24;21.70;25.10
20610;DHT22;10463;52.378;9.688;2022-11-18T14:32:13;21.70;25.10
20610;DHT22;10463;52.378;9.688;2022-11-18T14:34:58;21.70;25.10
20610;DHT22;10463;52.378;9.688;2022-11-18T14:37:43;21.70;25.10
20610;DHT22;10463;52.378;9.688;2022-11-18T14:40:29;21.60;25.00
20610;DHT22;10463;52.378;9.688;2022-11-18T14:43:13;21.70;25.10
20610;DHT22;10463;52.378;9.688;2022-11-18T14:46:03;21.70;25.10
20610;DHT22;10463;52.378;9.688;2022-11-18T14:48:48;21.60;25.00
20610;DHT22;10463;52.378;9.688;2022-11-18T14:51:35;21.70;25.00
20610;DHT22;10463;52.378;9.688;2022-11-18T14:54:23;21.70;25.00
20610;DHT22;10463;52.378;9.688;2022-11-18T14:57:13;21.70;25.10
20610;DHT22;10463;52.378;9.688;2022-11-18T14:59:59;21.70;25.00
20610;DHT22;10463;52.378;9.688;2022-11-18T15:02:45;21.70;25.00
20610;DHT22;10463;52.378;9.688;2022-11-18T15:05:30;21.60;25.00
20610;DHT22;10463;52.378;9.688;2022-11-18T15:08:15;21.60;25.00
20610;DHT22;10463;52.378;9.688;2022-11-18T15:11:00;21.60;25.00
20610;DHT22;10463;52.378;9.688;2022-11-18T15:13:45;21.60;25.00
20610;DHT22;10463;52.378;9.688;2022-11-18T15:16:31;21.60;25.00
20610;DHT22;10463;52.378;9.688;2022-11-18T15:19:17;21.60;25.00
20610;DHT22;10463;52.378;9.688;2022-11-18T15:22:02;21.60;25.00
20610;DHT22;10463;52.378;9.688;2022-11-18T15:24:47;21.60;24.90
20610;DHT22;10463;52.378;9.688;2022-11-18T15:27:31;21.60;25.00
20610;DHT22;10463;52.378;9.688;2022-11-18T15:30:16;21.60;24.90
20610;DHT22;10463;52.378;9.688;2022-11-18T15:33:01;21.60;25.00
20610;DHT22;10463;52.378;9.688;2022-11-18T15:35:47;21.60;24.90
20610;DHT22;10463;52.378;9.688;2022-11-18T15:38:32;21.60;24.90
20610;DHT22;10463;52.378;9.688;2022-11-18T15:41:20;21.60;24.90
20610;DHT22;10463;52.378;9.688;2022-11-18T15:44:05;21.60;25.00
20610;DHT22;10463;52.378;9.688;2022-11-18T15:46:51;21.60;25.00
20610;DHT22;10463;52.378;9.688;2022-11-18T15:49:36;21.60;24.90
20610;DHT22;10463;52.378;9.688;2022-11-18T15:52:22;21.60;24.90
20610;DHT22;10463;52.378;9.688;2022-11-18T15:55:07;21.60;24.90
20610;DHT22;10463;52.378;9.688;2022-11-18T15:57:52;21.60;24.90
20610;DHT22;10463;52.378;9.688;2022-11-18T16:00:37;21.60;24.90
20610;DHT22;10463;52.378;9.688;2022-11-18T16:03:22;21.60;24.90
20610;DHT22;10463;52.378;9.688;2022-11-18T16:06:07;21.60;24.90
20610;DHT22;10463;52.378;9.688;2022-11-18T16:08:54;21.60;24.90
20610;DHT22;10463;52.378;9.688;2022-11-18T16:11:38;21.60;24.90
20610;DHT22;10463;52.378;9.688;2022-11-18T16:14:42;21.60;24.90
20610;DHT22;10463;52.378;9.688;2022-11-18T16:17:46;21.50;24.90
20610;DHT22;10463;52.378;9.688;2022-11-18T16:20:31;21.60;24.90
20610;DHT22;10463;52.378;9.688;2022-11-18T16:23:18;21.60;24.80
20610;DHT22;10463;52.378;9.688;2022-11-18T16:26:05;21.60;24.80
20610;DHT22;10463;52.378;9.688;2022-11-18T16:28:49;21.60;24.80
20610;DHT22;10463;52.378;9.688;2022-11-18T16:31:34;21.60;24.80
20610;DHT22;10463;52.378;9.688;2022-11-18T16:34:26;21.60;24.80
20610;DHT22;10463;52.378;9.688;2022-11-18T16:37:11;21.60;24.80
20610;DHT22;10463;52.378;9.688;2022-11-18T16:39:55;21.60;24.80
20610;DHT22;10463;52.378;9.688;2022-11-18T16:42:41;21.50;24.80
20610;DHT22;10463;52.378;9.688;2022-11-18T16:45:26;21.50;24.80
20610;DHT22;10463;52.378;9.688;2022-11-18T16:48:11;21.50;24.80
20610;DHT22;10463;52.378;9.688;2022-11-18T16:51:17;21.50;24.80
20610;DHT22;10463;52.378;9.688;2022-11-18T16:54:04;21.50;24.80
20610;DHT22;10463;52.378;9.688;2022-11-18T16:56:51;21.50;24.80
20610;DHT22;10463;52.378;9.688;2022-11-18T16:59:38;21.50;24.80
20610;DHT22;10463;52.378;9.688;2022-11-18T17:02:23;21.50;24.80
20610;DHT22;10463;52.378;9.688;2022-11-18T17:05:08;21.50;24.80
20610;DHT22;10463;52.378;9.688;2022-11-18T17:07:52;21.50;24.80
20610;DHT22;10463;52.378;9.688;2022-11-18T17:10:37;21.50;24.80
20610;DHT22;10463;52.378;9.688;2022-11-18T17:13:21;21.50;24.80
20610;DHT22;10463;52.378;9.688;2022-11-18T17:16:10;21.50;24.80
20610;DHT22;10463;52.378;9.688;2022-11-18T17:18:56;21.50;24.80
20610;DHT22;10463;52.378;9.688;2022-11-18T17:21:43;21.50;24.80
20610;DHT22;10463;52.378;9.688;2022-11-18T17:24:27;21.50;24.80
20610;DHT22;10463;52.378;9.688;2022-11-18T17:27:12;21.50;24.80
20610;DHT22;10463;52.378;9.688;2022-11-18T17:29:56;21.50;24.90
20610;DHT22;10463;52.378;9.688;2022-11-18T17:32:42;21.50;24.90
20610;DHT22;10463;52.378;9.688;2022-11-18T17:35:27;21.50;24.90
20610;DHT22;10463;52.378;9.688;2022-11-18T17:38:11;21.50;25.00
20610;DHT22;10463;52.378;9.688;2022-11-18T17:40:57;21.50;25.10
20610;DHT22;10463;52.378;9.688;2022-11-18T17:43:41;21.50;25.10
20610;DHT22;10463;52.378;9.688;2022-11-18T17:46:26;21.50;25.20
20610;DHT22;10463;52.378;9.688;2022-11-18T17:49:16;21.50;25.20